Time;durP1;ratioP1;P1;durP2;ratioP2;P2;SDS_P1;SDS_P2;PMS_P1;PMS_P2;Temp;Humidity;BMP_temperature;BMP_pressure;BME280_temperature;BME280_humidity;BME280_pressure;Samples;Min_cycle;Max_cycle;Signal;HPM_P1;HPM_P2
2022/04/28 00:02:15;;;;;;;39.00;17.92;;;;;;;7.12;100.00;102470.06;5069335;28;20032;-80
2022/04/28 00:04:41;;;;;;;40.55;18.33;;;;;;;7.06;100.00;102471.34;5067151;28;20505;-79
2022/04/28 00:07:06;;;;;;;47.20;19.33;;;;;;;7.03;100.00;102474.25;5060138;28;20024;-79
2022/04/28 00:09:32;;;;;;;41.22;18.45;;;;;;;7.04;100.00;102487.53;5040029;28;20119;-78
2022/04/28 00:11:58;;;;;;;45.78;20.13;;;;;;;6.90;100.00;102479.63;5072403;28;20052;-78
2022/04/28 00:14:24;;;;;;;45.50;19.63;;;;;;;6.89;100.00;102493.97;5037429;28;20036;-79
2022/04/28 00:16:49;;;;;;;40.88;18.38;;;;;;;6.80;100.00;102494.59;5071454;28;20040;-78
2022/04/28 00:19:15;;;;;;;42.17;17.77;;;;;;;6.75;100.00;102491.44;5067172;28;20032;-79
2022/04/28 00:21:40;;;;;;;45.28;18.95;;;;;;;6.74;100.00;102500.41;5049465;28;20036;-80
2022/04/28 00:24:06;;;;;;;51.97;20.38;;;;;;;6.67;100.00;102493.75;5040822;28;20554;-79
2022/04/28 00:26:32;;;;;;;48.63;20.13;;;;;;;6.66;100.00;102498.25;5070318;28;20043;-78
2022/04/28 00:28:58;;;;;;;54.95;22.27;;;;;;;6.51;100.00;102480.63;5071667;28;20036;-79
2022/04/28 00:31:23;;;;;;;50.72;21.20;;;;;;;6.66;100.00;102502.75;5068927;28;20036;-79
2022/04/28 00:33:49;;;;;;;53.60;19.95;;;;;;;6.65;100.00;102503.72;5061160;28;20032;-79
2022/04/28 00:36:15;;;;;;;51.05;19.52;;;;;;;6.65;100.00;102501.06;5033885;28;20032;-79
2022/04/28 00:38:40;;;;;;;46.03;19.15;;;;;;;6.70;100.00;102510.47;5070189;28;20032;-78
2022/04/28 00:41:06;;;;;;;47.50;19.83;;;;;;;6.73;100.00;102512.91;5072918;28;20029;-78
2022/04/28 00:43:32;;;;;;;56.58;21.42;;;;;;;6.76;100.00;102520.72;5075551;28;20108;-79
2022/04/28 00:45:58;;;;;;;41.97;15.93;;;;;;;6.81;100.00;102520.41;5032742;28;20067;-78
2022/04/28 00:51:10;;;;;;;72.20;21.95;;;;;;;6.88;100.00;102520.81;5060784;28;20515;-78
2022/04/28 00:53:42;;;;;;;57.35;21.10;;;;;;;6.83;100.00;102516.66;5063892;28;20058;-79
2022/04/28 00:56:09;;;;;;;48.13;20.08;;;;;;;6.66;100.00;102494.75;5035866;28;20035;-79
2022/04/28 00:58:36;;;;;;;59.83;21.75;;;;;;;6.87;100.00;102533.31;5051486;28;20052;-79
2022/04/28 01:01:03;;;;;;;52.65;20.23;;;;;;;6.87;100.00;102522.63;5058334;28;20126;-78
2022/04/28 01:03:30;;;;;;;58.20;21.95;;;;;;;6.91;100.00;102524.13;5048961;28;20079;-79
2022/04/28 01:05:57;;;;;;;55.05;22.02;;;;;;;7.00;100.00;102528.81;5067165;28;20044;-79
2022/04/28 01:08:23;;;;;;;46.08;19.42;;;;;;;7.04;100.00;102522.31;5034631;28;20036;-78
2022/04/28 01:10:48;;;;;;;57.25;20.48;;;;;;;7.07;100.00;102531.06;5029785;28;20039;-79
2022/04/28 01:13:14;;;;;;;55.55;20.77;;;;;;;7.02;100.00;102529.56;5049814;28;20040;-79
2022/04/28 01:15:48;;;;;;;48.85;19.45;;;;;;;7.04;100.00;102535.69;5067264;28;20111;-78
2022/04/28 01:18:13;;;;;;;;;;;;;;;7.01;100.00;102538.56;5063742;28;20107;-77
2022/04/28 01:20:39;;;;;;;58.58;22.08;;;;;;;6.94;100.00;102531.94;5049388;28;20046;-78
2022/04/28 01:23:06;;;;;;;56.42;22.17;;;;;;;6.95;100.00;102536.31;5051845;28;20067;-79
2022/04/28 01:25:31;;;;;;;49.05;20.25;;;;;;;6.96;100.00;102530.03;5066164;28;20504;-78
2022/04/28 01:27:58;;;;;;;65.28;22.08;;;;;;;7.02;100.00;102531.41;5064859;28;20036;-78
2022/04/28 01:30:23;;;;;;;34.45;15.95;;;;;;;7.08;100.00;102540.81;5049315;28;20032;-79
2022/04/28 01:32:50;;;;;;;55.75;22.13;;;;;;;7.02;100.00;102544.78;5068468;28;20073;-78
2022/04/28 01:35:15;;;;;;;63.95;22.13;;;;;;;6.93;100.00;102537.38;5068046;28;20040;-78
2022/04/28 01:37:41;;;;;;;56.47;21.92;;;;;;;6.99;100.00;102542.31;5052416;28;20428;-79
2022/04/28 01:40:11;;;;;;;32.28;15.73;;;;;;;7.09;100.00;102539.81;5069082;28;20040;-79
2022/04/28 01:42:47;;;;;;;34.15;15.88;;;;;;;7.08;100.00;102540.81;5063518;28;20047;-77
2022/04/28 01:45:14;;;;;;;45.92;17.70;;;;;;;7.03;100.00;102547.31;5051713;28;20040;-78
2022/04/28 01:47:39;;;;;;;57.05;21.70;;;;;;;6.89;100.00;102536.75;5069941;28;20028;-78
2022/04/28 01:50:06;;;;;;;51.67;20.65;;;;;;;6.93;100.00;102543.63;5070351;28;20028;-79
2022/04/28 01:55:16;;;;;;;47.63;19.10;;;;;;;6.81;100.00;102526.59;5047395;28;20033;-79
2022/04/28 01:57:41;;;;;;;46.80;18.58;;;;;;;6.84;100.00;102544.25;5064571;28;20117;-78
2022/04/28 02:00:08;;;;;;;52.75;20.38;;;;;;;6.78;100.00;102540.19;5064850;28;21538;-79
2022/04/28 02:02:34;;;;;;;48.58;18.60;;;;;;;6.79;100.00;102541.03;5034166;28;20029;-79
2022/04/28 02:05:01;;;;;;;47.53;19.52;;;;;;;6.77;100.00;102540.28;5066871;28;20375;-80
2022/04/28 02:07:28;;;;;;;54.58;21.10;;;;;;;6.73;100.00;102533.44;5063590;28;20119;-78
2022/04/28 02:09:54;;;;;;;50.53;18.95;;;;;;;6.70;100.00;102531.00;5030306;28;20515;-79
2022/04/28 02:12:20;;;;;;;38.85;14.98;;;;;;;6.72;100.00;102534.41;5035050;28;20032;-79
2022/04/28 02:14:46;;;;;;;45.42;19.20;;;;;;;6.63;100.00;102516.34;5036658;28;20025;-79
2022/04/28 02:17:16;;;;;;;43.47;16.92;;;;;;;6.70;100.00;102531.84;5065595;28;20093;-79
2022/04/28 02:19:42;;;;;;;43.30;16.67;;;;;;;6.68;100.00;102527.56;5049576;28;20427;-79
2022/04/28 02:22:09;;;;;;;47.47;17.65;;;;;;;6.66;100.00;102519.66;5050515;28;20128;-79
2022/04/28 02:24:35;;;;;;;52.15;16.98;;;;;;;6.66;100.00;102525.00;5048110;28;20028;-79
2022/04/28 02:27:01;;;;;;;47.83;17.13;;;;;;;6.64;100.00;102521.56;5063590;28;20471;-78
2022/04/28 02:29:26;;;;;;;41.60;16.13;;;;;;;6.65;100.00;102522.44;5068634;28;20461;-78
2022/04/28 02:31:52;;;;;;;29.27;12.68;;;;;;;6.65;100.00;102525.13;5070291;28;20029;-79
2022/04/28 02:34:18;;;;;;;36.85;15.95;;;;;;;6.63;100.00;102522.53;5053455;28;20121;-78
2022/04/28 02:36:43;;;;;;;42.42;18.02;;;;;;;6.53;100.00;102500.94;5070119;28;20028;-80
2022/04/28 02:39:09;;;;;;;37.95;15.77;;;;;;;6.64;100.00;102523.38;5068866;28;20029;-78
2022/04/28 02:41:36;;;;;;;32.03;14.10;;;;;;;6.63;100.00;102524.38;5068288;28;20032;-79
2022/04/28 02:44:01;;;;;;;36.15;15.80;;;;;;;6.56;100.00;102518.56;5072440;28;20477;-77
2022/04/28 02:46:28;;;;;;;40.38;16.80;;;;;;;6.48;100.00;102515.56;5062351;28;20032;-78
2022/04/28 02:48:54;;;;;;;25.30;8.98;;;;;;;6.49;100.00;102519.97;5105926;28;20263;-78
2022/04/28 02:51:20;;;;;;;39.95;17.10;;;;;;;6.39;100.00;102507.25;5079540;28;20051;-78
2022/04/28 02:53:45;;;;;;;40.95;15.35;;;;;;;6.37;100.00;102508.31;5079290;28;20041;-79
2022/04/28 02:56:11;;;;;;;40.22;17.25;;;;;;;6.33;100.00;102515.69;5077089;28;20043;-78
2022/04/28 02:58:37;;;;;;;42.85;17.65;;;;;;;6.31;100.00;102520.28;5075765;28;20483;-79
2022/04/28 03:01:03;;;;;;;44.63;16.42;;;;;;;6.28;100.00;102503.59;5073988;28;20028;-79
2022/04/28 03:03:29;;;;;;;43.58;17.05;;;;;;;6.27;100.00;102501.88;5070724;28;20143;-78
2022/04/28 03:11:23;;;;;;;38.33;14.10;;;;;;;6.17;100.00;102496.31;5054569;28;20024;-78
2022/04/28 03:13:49;;;;;;;24.60;10.73;;;;;;;6.21;100.00;102494.28;5068757;28;20028;-78
2022/04/28 03:16:15;;;;;;;45.95;16.35;;;;;;;6.21;100.00;102492.47;5070876;28;20037;-79
2022/04/28 03:18:41;;;;;;;39.85;14.98;;;;;;;6.11;100.00;102475.34;5036787;28;20039;-78
2022/04/28 03:21:06;;;;;;;48.78;16.02;;;;;;;6.24;100.00;102497.59;5071063;28;20028;-79
2022/04/28 03:23:32;;;;;;;40.78;14.93;;;;;;;6.21;100.00;102497.81;5070035;28;20032;-78
2022/04/28 03:25:57;;;;;;;25.45;11.57;;;;;;;6.21;100.00;102496.97;5054070;28;20043;-78
2022/04/28 03:28:23;;;;;;;41.28;15.80;;;;;;;6.22;100.00;102498.66;5070224;28;20024;-79
2022/04/28 03:30:50;;;;;;;46.70;14.85;;;;;;;6.23;100.00;102497.72;5050459;28;20017;-78
2022/04/28 03:33:18;;;;;;;46.53;15.30;;;;;;;6.24;100.00;102497.59;5057135;28;20283;-78
2022/04/28 03:35:44;;;;;;;41.70;16.40;;;;;;;6.18;100.00;102494.50;5070042;28;20090;-79
2022/04/28 03:38:12;;;;;;;37.88;13.63;;;;;;;6.11;100.00;102486.91;5069946;28;20265;-79
2022/04/28 03:40:42;;;;;;;33.60;12.45;;;;;;;6.11;100.00;102480.69;5070294;28;20020;-79
2022/04/28 03:43:09;;;;;;;36.22;15.27;;;;;;;6.14;100.00;102484.03;5064746;28;20117;-79
2022/04/28 03:45:34;;;;;;;36.25;13.13;;;;;;;6.11;100.00;102480.69;5070165;28;20078;-80
2022/04/28 03:48:01;;;;;;;33.60;15.07;;;;;;;6.07;100.00;102479.22;5035437;28;20032;-79
2022/04/28 03:50:30;;;;;;;41.40;14.27;;;;;;;6.03;100.00;102488.38;5038766;28;20075;-79
2022/04/28 03:52:57;;;;;;;39.30;15.30;;;;;;;5.86;100.00;102468.97;5051121;28;20047;-79
2022/04/28 03:55:23;;;;;;;42.42;14.77;;;;;;;5.96;100.00;102492.44;5070547;28;20036;-79
2022/04/28 03:57:49;;;;;;;33.90;14.27;;;;;;;5.79;100.00;102465.00;5052703;28;20036;-78
2022/04/28 04:00:15;;;;;;;39.17;15.02;;;;;;;5.93;100.00;102481.00;5069357;28;20124;-78
2022/04/28 04:02:40;;;;;;;41.53;15.80;;;;;;;5.89;100.00;102481.28;5037448;28;20040;-80
2022/04/28 04:05:07;;;;;;;35.05;14.90;;;;;;;5.90;100.00;102488.31;5037403;28;20055;-78
2022/04/28 04:07:33;;;;;;;39.83;15.07;;;;;;;5.87;100.00;102485.84;5052364;28;20101;-78
2022/04/28 04:10:01;;;;;;;40.88;15.30;;;;;;;5.81;100.00;102488.94;5069773;28;20032;-78
2022/04/28 04:12:27;;;;;;;35.85;14.55;;;;;;;5.71;100.00;102497.53;5053012;28;20051;-79
2022/04/28 04:14:53;;;;;;;45.47;15.48;;;;;;;5.65;100.00;102492.63;5036329;28;20028;-78
2022/04/28 04:17:19;;;;;;;29.15;11.93;;;;;;;5.56;100.00;102485.25;5036251;28;20373;-78
2022/04/28 04:19:45;;;;;;;37.28;15.82;;;;;;;5.71;100.00;102494.03;5070122;28;20028;-78
2022/04/28 04:22:14;;;;;;;34.17;13.65;;;;;;;5.75;100.00;102495.53;5050785;28;20020;-78
2022/04/28 04:24:43;;;;;;;43.60;15.50;;;;;;;5.75;100.00;102494.69;5050707;28;20046;-78
2022/04/28 04:27:09;;;;;;;39.08;15.80;;;;;;;5.62;100.00;102479.47;5050906;28;20135;-79
2022/04/28 04:29:38;;;;;;;33.60;12.88;;;;;;;5.64;100.00;102474.06;5050504;28;20032;-79
2022/04/28 04:32:24;;;;;;;41.00;14.02;;;;;;;5.75;100.00;102492.88;5068380;28;20029;-79
2022/04/28 04:34:51;;;;;;;33.78;12.88;;;;;;;5.72;100.00;102487.75;5052171;28;20075;-78
2022/04/28 04:37:17;;;;;;;33.47;13.23;;;;;;;5.82;100.00;102499.53;5047624;28;20044;-79
2022/04/28 04:39:43;;;;;;;39.08;13.77;;;;;;;5.83;100.00;102498.56;5070737;28;20033;-79
2022/04/28 04:42:09;;;;;;;39.03;14.57;;;;;;;5.78;100.00;102494.50;5070095;28;20036;-78
2022/04/28 04:44:35;;;;;;;34.20;14.20;;;;;;;5.80;100.00;102506.78;5049730;28;20033;-79
2022/04/28 04:47:00;;;;;;;40.42;14.32;;;;;;;5.77;100.00;102498.09;5051544;28;20611;-80
2022/04/28 04:49:26;;;;;;;29.92;10.90;;;;;;;5.78;100.00;102507.84;5033186;28;20043;-80
2022/04/28 04:51:52;;;;;;;32.67;14.88;;;;;;;5.77;100.00;102508.78;5032648;28;20025;-78
2022/04/28 04:54:18;;;;;;;36.08;13.77;;;;;;;5.74;100.00;102509.81;5070083;28;20056;-79
2022/04/28 04:56:44;;;;;;;22.58;9.52;;;;;;;5.67;100.00;102496.06;5054154;28;20056;-79
2022/04/28 04:59:10;;;;;;;38.67;14.00;;;;;;;5.71;100.00;102504.69;5072297;28;20533;-79
2022/04/28 05:01:35;;;;;;;38.67;12.70;;;;;;;5.71;100.00;102508.22;5034555;28;20081;-79
2022/04/28 05:04:01;;;;;;;24.15;11.23;;;;;;;5.71;100.00;102507.38;5032669;28;20111;-79
2022/04/28 05:06:26;;;;;;;34.33;13.02;;;;;;;5.76;100.00;102512.41;5065030;28;20067;-78
2022/04/28 05:08:52;;;;;;;29.67;13.25;;;;;;;5.72;100.00;102504.63;5048143;28;20028;-78
2022/04/28 05:11:18;;;;;;;18.08;8.80;;;;;;;5.73;100.00;102500.97;5036403;28;20127;-78
2022/04/28 05:13:44;;;;;;;28.73;12.85;;;;;;;5.70;100.00;102500.34;5051193;28;20111;-79
2022/04/28 05:16:09;;;;;;;22.23;9.60;;;;;;;5.74;100.00;102507.16;5052176;28;20025;-78
2022/04/28 05:18:35;;;;;;;14.50;7.65;;;;;;;5.63;100.00;102497.19;5051893;28;20450;-78
2022/04/28 05:21:01;;;;;;;30.10;9.43;;;;;;;5.61;100.00;102517.81;5048964;28;20044;-78
2022/04/28 05:23:26;;;;;;;22.52;12.75;;;;;;;5.58;100.00;102520.66;5065866;28;20036;-78
2022/04/28 05:25:52;;;;;;;27.08;12.48;;;;;;;5.54;100.00;102518.31;5049743;28;20036;-79
2022/04/28 05:28:18;;;;;;;29.58;11.68;;;;;;;5.46;100.00;102527.66;5035830;28;20127;-80
2022/04/28 05:30:43;;;;;;;26.83;12.48;;;;;;;5.41;100.00;102523.59;5071493;28;20093;-79
2022/04/28 05:33:09;;;;;;;25.52;10.40;;;;;;;5.37;100.00;102519.38;5070982;28;20056;-79
2022/04/28 05:35:37;;;;;;;23.33;9.20;;;;;;;5.37;100.00;102522.94;5051847;28;20037;-80
2022/04/28 05:38:03;;;;;;;21.83;9.18;;;;;;;5.40;100.00;102521.84;5052274;28;20051;-79
2022/04/28 05:40:30;;;;;;;28.05;11.30;;;;;;;5.40;100.00;102532.53;5066291;28;20040;-78
2022/04/28 05:45:42;;;;;;;27.13;10.18;;;;;;;5.43;100.00;102527.88;5058276;28;20119;-79
2022/04/28 05:48:15;;;;;;;23.20;10.23;;;;;;;5.46;100.00;102543.66;5052493;28;20089;-79
2022/04/28 05:50:41;;;;;;;29.93;10.60;;;;;;;5.48;100.00;102533.75;5051178;28;20090;-78
2022/04/28 05:53:07;;;;;;;21.27;9.13;;;;;;;5.54;100.00;102545.00;5049547;28;20037;-78
2022/04/28 05:55:33;;;;;;;27.50;11.18;;;;;;;5.54;100.00;102548.50;5064256;28;20043;-78
2022/04/28 05:57:59;;;;;;;27.60;12.20;;;;;;;5.53;100.00;102552.16;5062494;28;20040;-79
2022/04/28 06:00:25;;;;;;;15.40;7.85;;;;;;;5.66;100.00;102561.06;5055179;28;20036;-79
2022/04/28 06:02:52;;;;;;;26.38;9.98;;;;;;;5.78;100.00;102559.41;5069521;28;20029;-79
2022/04/28 06:05:17;;;;;;;26.42;10.75;;;;;;;5.78;100.00;102539.88;5053186;28;20378;-78
2022/04/28 06:07:43;;;;;;;23.23;9.93;;;;;;;6.00;100.00;102556.19;5046692;28;20043;-79
2022/04/28 06:10:18;;;;;;;21.75;9.93;;;;;;;6.18;100.00;102571.97;5052693;28;20168;-80
2022/04/28 06:12:44;;;;;;;22.73;10.13;;;;;;;6.35;100.00;102571.66;5069456;28;20063;-79
2022/04/28 06:15:10;;;;;;;24.75;10.27;;;;;;;6.58;100.00;102580.81;5067895;28;20339;-78
2022/04/28 06:17:36;;;;;;;21.83;9.02;;;;;;;6.81;100.00;102579.22;5043328;28;20067;-78
2022/04/28 06:20:03;;;;;;;23.10;9.23;;;;;;;7.07;100.00;102588.09;5067533;28;20389;-79
2022/04/28 06:22:29;;;;;;;28.48;10.70;;;;;;;7.36;100.00;102588.72;5052402;28;20222;-79
2022/04/28 06:24:55;;;;;;;21.33;9.77;;;;;;;7.61;100.00;102581.56;5059845;28;20047;-79
2022/04/28 06:27:22;;;;;;;12.73;7.22;;;;;;;7.86;97.66;102588.69;5050910;28;20036;-79
2022/04/28 06:29:49;;;;;;;21.15;8.88;;;;;;;8.03;96.77;102590.09;5069590;28;20097;-80
2022/04/28 06:32:16;;;;;;;20.33;7.72;;;;;;;8.38;96.06;102584.75;5063323;28;20548;-79
2022/04/28 06:34:42;;;;;;;21.13;8.30;;;;;;;8.80;93.42;102587.81;5033719;28;20135;-80
2022/04/28 06:37:08;;;;;;;16.80;7.97;;;;;;;9.20;90.94;102577.47;5067260;28;20033;-78
2022/04/28 06:39:34;;;;;;;19.50;8.27;;;;;;;9.60;88.99;102585.00;5071091;28;20115;-80
2022/04/28 06:41:59;;;;;;;23.02;10.10;;;;;;;9.69;87.45;102589.63;5068177;28;20067;-78
2022/04/28 06:44:25;;;;;;;24.42;10.05;;;;;;;10.36;84.91;102590.41;5039876;28;20029;-79
2022/04/28 06:47:25;;;;;;;15.15;7.78;;;;;;;11.07;78.36;102595.97;5067835;28;20035;-79
2022/04/28 06:49:51;;;;;;;21.45;8.68;;;;;;;10.96;77.80;102594.22;5053029;28;20032;-78
2022/04/28 06:52:17;;;;;;;16.02;7.80;;;;;;;10.79;76.94;102609.13;5065735;28;20435;-78
2022/04/28 06:54:42;;;;;;;15.95;6.22;;;;;;;9.98;79.42;102598.97;5035830;28;20047;-79
2022/04/28 06:57:15;;;;;;;21.80;8.07;;;;;;;9.36;83.20;102609.31;5050560;28;20020;-78
2022/04/28 06:59:42;;;;;;;14.85;6.35;;;;;;;8.87;86.22;102604.31;5047361;28;20033;-78
2022/04/28 07:02:09;;;;;;;15.18;7.43;;;;;;;8.73;87.29;102624.13;5048570;28;20490;-78
2022/04/28 07:04:35;;;;;;;38.50;11.85;;;;;;;8.66;87.13;102618.38;5065777;28;20032;-79
2022/04/28 07:07:00;;;;;;;53.30;12.45;;;;;;;8.53;87.74;102610.44;5064618;28;20041;-79
2022/04/28 07:09:26;;;;;;;29.77;9.82;;;;;;;8.85;87.55;102616.97;5051733;28;20113;-78
2022/04/28 07:11:51;;;;;;;21.85;8.55;;;;;;;9.43;85.39;102621.28;5031895;28;20029;-78
2022/04/28 07:14:17;;;;;;;19.67;8.32;;;;;;;9.52;83.80;102616.16;5033981;28;20032;-78
2022/04/28 07:16:43;;;;;;;15.25;8.23;;;;;;;9.92;83.62;102627.19;5072061;28;20032;-77
2022/04/28 07:19:08;;;;;;;16.98;7.30;;;;;;;9.70;82.22;102606.59;5052642;28;20032;-77
2022/04/28 07:21:37;;;;;;;18.08;7.10;;;;;;;9.58;82.71;102616.53;5042318;28;20029;-78
2022/04/28 07:24:03;;;;;;;25.67;11.18;;;;;;;9.79;82.72;102624.69;5065856;28;20036;-77
2022/04/28 07:26:28;;;;;;;22.50;8.52;;;;;;;10.03;81.14;102623.63;5064250;28;20382;-78
2022/04/28 07:28:54;;;;;;;16.83;7.47;;;;;;;10.26;79.93;102629.78;5046983;28;20113;-80
2022/04/28 07:31:19;;;;;;;18.02;7.65;;;;;;;10.91;77.41;102631.44;5031541;28;20064;-78
2022/04/28 07:33:45;;;;;;;19.40;9.88;;;;;;;12.93;70.56;102630.31;5045600;28;20028;-78
2022/04/28 07:36:12;;;;;;;16.92;9.57;;;;;;;14.21;62.14;102619.63;5068340;28;20039;-78
2022/04/28 07:38:39;;;;;;;23.75;9.38;;;;;;;15.18;58.59;102632.22;5071394;28;20549;-79
2022/04/28 07:41:05;;;;;;;27.25;8.57;;;;;;;15.92;53.86;102634.44;5071213;28;20334;-78
2022/04/28 07:43:30;;;;;;;22.70;9.20;;;;;;;16.41;53.75;102639.97;5031560;28;20032;-78
2022/04/28 07:45:56;;;;;;;21.73;11.02;;;;;;;17.06;52.20;102639.09;5070020;28;20033;-79
2022/04/28 07:48:21;;;;;;;17.88;9.85;;;;;;;17.30;49.88;102630.88;5038341;28;20443;-78
2022/04/28 07:50:47;;;;;;;20.92;9.23;;;;;;;17.72;49.82;102634.28;5069433;28;20539;-79
2022/04/28 07:53:13;;;;;;;17.48;8.85;;;;;;;16.92;50.06;102636.06;5054185;28;20117;-77
2022/04/28 07:55:39;;;;;;;20.92;9.13;;;;;;;15.13;55.16;102633.72;5078377;28;20029;-78
2022/04/28 07:58:04;;;;;;;21.42;9.85;;;;;;;13.55;60.62;102641.53;5067057;28;20138;-77
2022/04/28 08:00:30;;;;;;;21.58;10.30;;;;;;;12.44;65.26;102630.38;5066815;28;20017;-79
2022/04/28 08:02:55;;;;;;;19.65;9.63;;;;;;;11.88;68.23;102647.19;5071218;28;20052;-79
2022/04/28 08:05:21;;;;;;;21.65;9.82;;;;;;;14.48;62.80;102645.75;5072349;28;20020;-78
2022/04/28 08:07:47;;;;;;;20.65;11.18;;;;;;;16.60;55.04;102650.50;5071226;28;20474;-79
2022/04/28 08:10:12;;;;;;;22.02;10.75;;;;;;;17.96;50.83;102639.63;5070972;28;20039;-78
2022/04/28 08:12:38;;;;;;;18.95;9.48;;;;;;;18.96;46.70;102640.59;5039493;28;20028;-80
2022/04/28 08:15:05;;;;;;;24.63;11.50;;;;;;;19.21;43.93;102636.59;5059735;28;20036;-79
2022/04/28 08:17:30;;;;;;;23.80;10.50;;;;;;;19.67;44.88;102644.59;5069941;28;20178;-79
2022/04/28 08:19:56;;;;;;;26.92;12.25;;;;;;;19.93;42.93;102644.06;5033457;28;20127;-79
2022/04/28 08:22:21;;;;;;;25.42;12.13;;;;;;;20.28;42.73;102646.13;5067803;28;20028;-79
2022/04/28 08:24:50;;;;;;;26.00;13.40;;;;;;;20.47;42.27;102599.00;5070879;28;20377;-79
2022/04/28 08:27:21;;;;;;;21.48;11.55;;;;;;;21.31;40.68;102647.41;5070302;28;20028;-79
2022/04/28 08:29:46;;;;;;;24.13;14.07;;;;;;;22.13;39.47;102648.41;5058480;28;20036;-79
2022/04/28 08:32:12;;;;;;;29.48;12.35;;;;;;;22.59;37.92;102640.28;5051892;28;20035;-79
2022/04/28 08:34:37;;;;;;;28.73;12.00;;;;;;;23.01;37.98;102643.66;5051214;28;20032;-79
2022/04/28 08:37:03;;;;;;;28.70;12.77;;;;;;;23.45;35.31;102635.75;5036841;28;20470;-79
2022/04/28 08:39:29;;;;;;;28.52;12.77;;;;;;;23.42;34.64;102639.78;5069884;28;20064;-80
2022/04/28 08:41:58;;;;;;;22.58;12.75;;;;;;;23.39;35.61;102631.13;5051750;28;20045;-79
2022/04/28 08:44:26;;;;;;;26.80;13.18;;;;;;;23.88;34.99;102621.44;5033408;28;20127;-79
2022/04/28 08:46:54;;;;;;;22.30;12.32;;;;;;;24.43;33.96;102651.97;5067649;28;20040;-79
2022/04/28 08:49:27;;;;;;;25.70;13.40;;;;;;;24.51;31.87;102639.88;5064109;28;20231;-80
2022/04/28 08:51:58;;;;;;;29.63;13.25;;;;;;;24.29;31.61;102633.88;5033918;28;20119;-83
2022/04/28 08:54:29;;;;;;;24.33;13.93;;;;;;;24.67;30.75;102641.25;5070263;28;20036;-81
2022/04/28 08:56:57;;;;;;;29.83;14.38;;;;;;;24.76;29.94;102643.47;5058596;28;20051;-81
2022/04/28 08:59:23;;;;;;;24.83;15.02;;;;;;;25.24;30.88;102633.72;5069105;28;20025;-81
2022/04/28 09:01:50;;;;;;;27.35;14.20;;;;;;;25.81;29.27;102642.56;5072729;28;20160;-84
2022/04/28 09:04:17;;;;;;;24.42;10.95;;;;;;;26.16;28.01;102633.59;5040554;28;20035;-79
2022/04/28 09:06:43;;;;;;;27.45;13.95;;;;;;;25.74;28.24;102644.53;5066382;28;20067;-80
2022/04/28 09:09:14;;;;;;;24.65;13.73;;;;;;;25.78;28.83;102639.44;5062106;28;20038;-79
2022/04/28 09:11:40;;;;;;;23.15;13.73;;;;;;;26.28;27.99;102633.66;5062691;28;20036;-80
2022/04/28 09:14:18;;;;;;;28.88;14.05;;;;;;;26.43;28.37;102624.91;5052891;28;20486;-82
2022/04/28 09:17:01;;;;;;;25.67;14.70;;;;;;;25.94;28.10;102632.47;5074294;28;20155;-81
2022/04/28 09:19:34;;;;;;;21.30;13.60;;;;;;;25.99;28.67;102636.19;5035014;28;20028;-79
2022/04/28 09:22:12;;;;;;;22.55;14.68;;;;;;;26.51;28.34;102636.47;5066256;28;20183;-81
2022/04/28 09:24:39;;;;;;;25.77;13.38;;;;;;;27.20;27.51;102627.63;5054310;28;20104;-82
2022/04/28 09:27:06;;;;;;;23.08;13.77;;;;;;;27.40;26.15;102639.13;5070399;28;20117;-80
2022/04/28 09:29:36;;;;;;;27.40;14.60;;;;;;;27.03;27.18;102641.31;5053980;28;20025;-81
2022/04/28 09:32:02;;;;;;;27.73;14.77;;;;;;;26.80;27.95;102630.28;5051439;28;20040;-81
2022/04/28 09:34:28;;;;;;;23.10;14.18;;;;;;;26.95;27.93;102634.22;5076701;28;20066;-81
2022/04/28 09:36:56;;;;;;;26.77;14.93;;;;;;;27.12;27.17;102626.03;5070040;28;20033;-80
2022/04/28 09:42:31;;;;;;;26.40;13.88;;;;;;;26.90;28.40;102625.00;5070447;28;20032;-80
2022/04/28 09:45:00;;;;;;;25.08;14.10;;;;;;;27.81;26.71;102625.34;5069746;28;20409;-80
2022/04/28 09:47:27;;;;;;;24.60;14.02;;;;;;;27.18;25.94;102610.50;5068489;28;20271;-81
2022/04/28 09:49:53;;;;;;;26.92;14.50;;;;;;;26.66;27.61;102611.19;5052782;28;20056;-80
2022/04/28 09:52:19;;;;;;;25.00;13.73;;;;;;;26.88;27.77;102599.53;5040414;28;20029;-80
2022/04/28 09:54:47;;;;;;;21.52;14.07;;;;;;;26.40;28.60;102609.69;5047176;28;20021;-79
2022/04/28 09:57:13;;;;;;;27.40;14.75;;;;;;;27.15;26.60;102603.50;5049368;28;20032;-81
2022/04/28 09:59:39;;;;;;;22.90;13.63;;;;;;;27.13;28.09;102615.88;5070356;28;20035;-80
2022/04/28 10:02:07;;;;;;;24.85;14.60;;;;;;;27.70;26.25;102607.69;5070690;28;20028;-81
2022/04/28 10:04:33;;;;;;;27.38;15.55;;;;;;;28.23;25.21;102616.72;5054400;28;20025;-80
2022/04/28 10:06:59;;;;;;;24.63;14.20;;;;;;;28.67;24.48;102608.63;5071584;28;20032;-80
2022/04/28 10:09:24;;;;;;;24.73;15.10;;;;;;;27.59;26.57;102601.13;5063414;28;20393;-80
2022/04/28 10:11:50;;;;;;;24.38;15.48;;;;;;;27.73;24.53;102596.16;5051700;28;20032;-80
2022/04/28 10:14:19;;;;;;;24.65;13.65;;;;;;;24.36;29.00;102596.19;5036527;28;20025;-79
2022/04/28 10:16:46;;;;;;;31.38;15.07;;;;;;;21.68;32.91;102594.13;5043992;28;20036;-81
2022/04/28 10:19:15;;;;;;;27.08;14.10;;;;;;;20.21;37.19;102605.06;5069577;28;20040;-79
2022/04/28 10:21:50;;;;;;;25.05;14.50;;;;;;;19.33;39.42;102596.03;5055192;28;20037;-85
2022/04/28 10:32:58;;;;;;;21.25;11.75;;;;;;;16.56;45.26;102596.69;5052490;28;20028;-88
2022/04/28 10:35:50;;;;;;;20.63;10.73;;;;;;;16.26;45.82;102594.47;5069199;28;20033;-87
2022/04/28 10:38:34;;;;;;;20.40;10.87;;;;;;;16.10;47.52;102599.03;5066627;28;20384;-88
2022/04/28 10:41:01;;;;;;;20.23;11.80;;;;;;;15.91;47.28;102592.91;5055439;28;20277;-82
2022/04/28 10:43:33;;;;;;;26.80;11.73;;;;;;;15.66;48.25;102581.09;5058488;28;20067;-82
2022/04/28 10:46:08;;;;;;;26.15;11.45;;;;;;;15.80;48.60;102601.38;5077427;28;20068;-81
2022/04/28 10:48:38;;;;;;;19.60;9.40;;;;;;;15.83;48.64;102593.75;5072068;28;20063;-81
2022/04/28 10:51:33;;;;;;;24.50;11.30;;;;;;;16.04;47.64;102598.69;5088279;28;20037;-82
2022/04/28 10:54:11;;;;;;;19.13;9.07;;;;;;;16.47;46.52;102595.84;5045366;28;20112;-81
2022/04/28 10:56:40;;;;;;;17.38;10.70;;;;;;;17.10;44.64;102581.50;5055638;28;20067;-82
2022/04/28 10:59:40;;;;;;;16.80;10.57;;;;;;;21.67;36.73;102591.59;5058474;28;20106;-84
2022/04/28 11:02:11;;;;;;;17.98;10.25;;;;;;;21.01;35.85;102587.47;5088296;28;20045;-84
2022/04/28 11:04:39;;;;;;;17.70;10.25;;;;;;;19.83;37.66;102591.66;5074895;28;20071;-83
2022/04/28 11:07:14;;;;;;;21.83;10.15;;;;;;;19.07;40.02;102599.22;5057858;28;20476;-84
2022/04/28 11:09:41;;;;;;;15.20;9.73;;;;;;;18.58;40.22;102594.25;5054743;28;20033;-85
2022/04/28 11:12:11;;;;;;;18.85;10.20;;;;;;;18.23;40.62;102586.56;5040156;28;20028;-85
2022/04/28 11:14:44;;;;;;;16.65;9.60;;;;;;;17.99;41.59;102590.31;5040153;28;20041;-84
2022/04/28 11:17:11;;;;;;;17.23;9.95;;;;;;;17.97;41.76;102589.63;5053393;28;20064;-87
2022/04/28 11:19:36;;;;;;;23.73;10.07;;;;;;;18.08;41.71;102584.81;5032290;28;20051;-85
2022/04/28 11:22:03;;;;;;;18.35;10.32;;;;;;;18.05;42.05;102590.56;5066827;28;20040;-86
2022/04/28 11:24:29;;;;;;;17.88;8.88;;;;;;;18.13;41.89;102579.66;5071780;28;20120;-85
2022/04/28 11:26:58;;;;;;;15.13;9.55;;;;;;;18.38;41.59;102591.19;5070747;28;20033;-83
2022/04/28 11:29:24;;;;;;;15.30;8.23;;;;;;;18.43;40.63;102589.59;5058638;28;20104;-86
2022/04/28 11:31:50;;;;;;;13.30;6.97;;;;;;;18.46;40.98;102591.97;5071744;28;20171;-83
2022/04/28 11:34:17;;;;;;;15.02;8.48;;;;;;;18.40;41.25;102600.03;5069803;28;20043;-82
2022/04/28 11:36:43;;;;;;;17.30;8.48;;;;;;;18.34;41.12;102598.06;5072486;28;20024;-83
2022/04/28 11:39:10;;;;;;;15.02;7.85;;;;;;;18.38;40.60;102597.47;5073861;28;20024;-83